createdAt,value
2024-02-24T00:00:21.252Z,2.80
2024-02-24T00:01:21.315Z,2.80
2024-02-24T00:02:21.268Z,3.30
2024-02-24T00:03:22.956Z,3.00
2024-02-24T00:04:21.231Z,3.50
2024-02-24T00:05:21.215Z,3.20
2024-02-24T00:06:21.247Z,2.90
2024-02-24T00:07:21.189Z,2.90
2024-02-24T00:08:21.237Z,3.40
2024-02-24T00:09:21.159Z,2.90
2024-02-24T00:10:21.144Z,2.90
2024-02-24T00:11:21.262Z,3.60
2024-02-24T00:12:21.133Z,3.70
2024-02-24T00:13:21.127Z,3.80
2024-02-24T00:14:21.175Z,3.90
2024-02-24T00:15:21.103Z,3.60
2024-02-24T00:16:21.084Z,3.40
2024-02-24T00:17:21.122Z,3.90
2024-02-24T00:18:21.162Z,3.60
2024-02-24T00:19:21.123Z,3.50
2024-02-24T00:20:21.037Z,4.00
2024-02-24T00:21:21.039Z,4.30
2024-02-24T00:22:21.017Z,3.90
2024-02-24T00:23:21.140Z,4.20
2024-02-24T00:24:20.979Z,4.40
2024-02-24T00:25:20.990Z,4.40
2024-02-24T00:26:21.023Z,4.20
2024-02-24T00:27:20.969Z,3.90
2024-02-24T00:28:20.954Z,4.10
2024-02-24T00:29:20.978Z,4.00
2024-02-24T00:30:20.946Z,4.40
2024-02-24T00:31:20.896Z,4.70
2024-02-24T00:32:20.911Z,4.60
2024-02-24T00:33:20.913Z,4.50
2024-02-24T00:34:21.074Z,4.50
2024-02-24T00:35:20.924Z,4.30
2024-02-24T00:36:20.872Z,4.20
2024-02-24T00:37:20.858Z,4.50
2024-02-24T00:38:20.891Z,4.30
2024-02-24T00:39:20.824Z,4.30
2024-02-24T00:40:20.838Z,4.30
2024-02-24T00:41:20.850Z,4.60
2024-02-24T00:42:20.805Z,4.50
2024-02-24T00:43:20.771Z,4.60
2024-02-24T00:44:20.834Z,4.70
2024-02-24T00:45:20.773Z,4.30
2024-02-24T00:46:20.733Z,4.80
2024-02-24T00:47:20.760Z,4.60
2024-02-24T00:48:20.758Z,4.20
2024-02-24T00:49:20.824Z,4.50
2024-02-24T00:50:20.776Z,4.50
2024-02-24T00:51:20.757Z,4.60
2024-02-24T00:52:20.709Z,4.60
2024-02-24T00:53:20.708Z,5.10
2024-02-24T00:54:20.684Z,4.60
2024-02-24T00:55:20.639Z,4.10
2024-02-24T00:56:20.738Z,4.50
2024-02-24T00:57:20.645Z,4.30
2024-02-24T00:58:20.694Z,4.80
2024-02-24T00:59:20.700Z,4.70
2024-02-24T01:00:20.611Z,4.20
2024-02-24T01:01:20.608Z,4.60
2024-02-24T01:02:20.640Z,4.80
2024-02-24T01:03:20.581Z,4.50
2024-02-24T01:04:25.473Z,4.70
2024-02-24T01:05:20.695Z,4.50
2024-02-24T01:06:20.551Z,4.40
2024-02-24T01:07:20.588Z,4.50
2024-02-24T01:08:20.553Z,4.30
2024-02-24T01:09:20.540Z,4.50
2024-02-24T01:10:20.517Z,4.30
2024-02-24T01:11:20.598Z,4.00
2024-02-24T01:12:20.562Z,4.20
2024-02-24T01:13:20.465Z,4.20
2024-02-24T01:14:20.471Z,4.50
2024-02-24T01:15:20.528Z,4.50
2024-02-24T01:16:20.446Z,4.30
2024-02-24T01:17:20.444Z,4.50
2024-02-24T01:18:20.855Z,4.20
2024-02-24T01:19:20.512Z,4.50
2024-02-24T01:20:20.418Z,4.60
2024-02-24T01:21:20.400Z,4.50
2024-02-24T01:22:20.364Z,4.30
2024-02-24T01:23:20.404Z,4.60
2024-02-24T01:24:20.379Z,4.80
2024-02-24T01:25:20.350Z,4.60
2024-02-24T01:26:20.441Z,4.50
2024-02-24T01:27:20.352Z,4.30
2024-02-24T01:28:20.314Z,4.60
2024-02-24T01:29:20.337Z,4.40
2024-02-24T01:30:20.316Z,4.30
2024-02-24T01:31:20.290Z,4.50
2024-02-24T01:32:20.321Z,3.90
2024-02-24T01:33:20.382Z,4.30
2024-02-24T01:34:20.342Z,4.30
2024-02-24T01:35:20.273Z,4.10
2024-02-24T01:36:20.248Z,4.00
2024-02-24T01:37:20.240Z,4.10
2024-02-24T01:38:20.289Z,4.40
2024-02-24T01:39:20.218Z,4.20
2024-02-24T01:40:20.168Z,4.30
2024-02-24T01:41:20.244Z,4.10
2024-02-24T01:42:20.153Z,4.60
2024-02-24T01:43:20.143Z,4.30
2024-02-24T01:44:20.332Z,4.50
2024-02-24T01:45:20.167Z,4.50
2024-02-24T01:46:20.124Z,4.40
2024-02-24T01:47:20.158Z,4.60
2024-02-24T01:48:20.159Z,4.60
2024-02-24T01:49:20.113Z,4.70
2024-02-24T01:50:20.146Z,4.40
2024-02-24T01:51:20.090Z,4.40
2024-02-24T01:52:20.078Z,4.50
2024-02-24T01:53:20.095Z,4.50
2024-02-24T01:54:20.034Z,4.70
2024-02-24T01:55:20.030Z,4.50
2024-02-24T01:56:20.039Z,4.60
2024-02-24T01:57:20.031Z,4.50
2024-02-24T01:58:20.088Z,4.80
2024-02-24T01:59:20.050Z,4.50
2024-02-24T02:00:20.066Z,4.70
2024-02-24T02:01:20.023Z,4.80
2024-02-24T02:02:20.002Z,4.60
2024-02-24T02:03:19.980Z,4.70
2024-02-24T02:04:19.984Z,4.50
2024-02-24T02:05:20.014Z,4.40
2024-02-24T02:06:20.117Z,4.60
2024-02-24T02:07:19.935Z,4.20
2024-02-24T02:08:19.960Z,4.30
2024-02-24T02:09:19.900Z,4.90
2024-02-24T02:10:19.892Z,4.90
2024-02-24T02:11:19.972Z,4.90
2024-02-24T02:12:20.099Z,4.70
2024-02-24T02:13:19.879Z,4.80
2024-02-24T02:14:19.922Z,4.80
2024-02-24T02:15:19.822Z,4.30
2024-02-24T02:16:19.900Z,4.80
2024-02-24T02:17:19.834Z,4.50
2024-02-24T02:18:19.976Z,4.50
2024-02-24T02:19:19.915Z,4.30
2024-02-24T02:20:19.823Z,4.40
2024-02-24T02:21:19.762Z,4.20
2024-02-24T02:22:19.828Z,4.80
2024-02-24T02:23:19.820Z,4.30
2024-02-24T02:24:19.724Z,4.80
2024-02-24T02:25:19.729Z,4.30
2024-02-24T02:26:19.743Z,4.40
2024-02-24T02:27:19.704Z,4.80
2024-02-24T02:28:19.666Z,4.50
2024-02-24T02:29:19.720Z,4.50
2024-02-24T02:30:19.663Z,4.80
2024-02-24T02:31:19.648Z,4.00
2024-02-24T02:32:19.651Z,4.20
2024-02-24T02:33:19.952Z,4.60
2024-02-24T02:34:19.903Z,4.30
2024-02-24T02:35:19.633Z,4.20
2024-02-24T02:36:19.623Z,4.50
2024-02-24T02:37:19.629Z,4.50
2024-02-24T02:38:19.614Z,4.20
2024-02-24T02:39:19.562Z,4.70
2024-02-24T02:40:19.532Z,4.50
2024-02-24T02:41:19.584Z,4.20
2024-02-24T02:42:19.551Z,4.10
2024-02-24T02:43:19.567Z,4.60
2024-02-24T02:44:19.525Z,4.60
2024-02-24T02:45:19.540Z,4.20
2024-02-24T02:46:19.491Z,4.30
2024-02-24T02:47:23.765Z,4.30
2024-02-24T02:48:19.611Z,4.10
2024-02-24T02:49:19.670Z,4.30
2024-02-24T02:50:19.447Z,4.40
2024-02-24T02:51:19.442Z,4.00
2024-02-24T02:52:19.434Z,4.20
2024-02-24T02:53:19.455Z,4.20
2024-02-24T02:54:19.419Z,4.20
2024-02-24T02:55:19.648Z,4.10
2024-02-24T02:56:19.389Z,4.30
2024-02-24T02:57:19.406Z,4.50
2024-02-24T02:58:19.395Z,4.30
2024-02-24T02:59:19.419Z,4.20
2024-02-24T03:00:19.376Z,4.10
2024-02-24T03:01:19.385Z,4.30
2024-02-24T03:02:19.348Z,4.60
2024-02-24T03:03:19.307Z,4.40
2024-02-24T03:04:19.312Z,4.30
2024-02-24T03:05:19.314Z,4.50
2024-02-24T03:06:19.387Z,4.20
2024-02-24T03:07:19.322Z,4.50
2024-02-24T03:08:19.346Z,4.10
2024-02-24T03:09:19.289Z,4.60
2024-02-24T03:10:19.248Z,4.60
2024-02-24T03:11:19.373Z,4.10
2024-02-24T03:12:19.407Z,4.30
2024-02-24T03:13:19.214Z,4.50
2024-02-24T03:14:19.221Z,4.20
2024-02-24T03:15:19.210Z,4.30
2024-02-24T03:16:19.169Z,3.90
2024-02-24T03:17:19.219Z,3.80
2024-02-24T03:18:19.256Z,4.30
2024-02-24T03:19:19.355Z,4.50
2024-02-24T03:20:19.172Z,4.20
2024-02-24T03:21:19.119Z,3.90
2024-02-24T03:22:19.125Z,3.80
2024-02-24T03:23:19.126Z,3.90
2024-02-24T03:24:19.087Z,3.70
2024-02-24T03:25:19.087Z,3.90
2024-02-24T03:26:19.076Z,4.00
2024-02-24T03:27:19.054Z,4.10
2024-02-24T03:28:19.039Z,4.00
2024-02-24T03:29:19.053Z,4.00
2024-02-24T03:30:19.021Z,4.00
2024-02-24T03:31:19.076Z,3.90
2024-02-24T03:32:19.064Z,4.00
2024-02-24T03:33:19.177Z,4.00
2024-02-24T03:34:19.037Z,3.90
2024-02-24T03:35:19.000Z,4.10
2024-02-24T03:36:18.981Z,4.10
2024-02-24T03:37:18.951Z,4.30
2024-02-24T03:38:18.993Z,4.30
2024-02-24T03:39:18.958Z,4.30
2024-02-24T03:40:18.987Z,4.10
2024-02-24T03:41:18.946Z,4.20
2024-02-24T03:42:18.878Z,4.30
2024-02-24T03:43:18.886Z,3.90
2024-02-24T03:44:18.982Z,4.20
2024-02-24T03:45:18.876Z,4.20
2024-02-24T03:46:18.866Z,3.70
2024-02-24T03:47:18.841Z,3.70
2024-02-24T03:48:18.987Z,3.90
2024-02-24T03:49:19.014Z,4.20
2024-02-24T03:50:18.872Z,3.70
2024-02-24T03:51:18.808Z,3.90
2024-02-24T03:52:18.767Z,4.00
2024-02-24T03:53:18.794Z,4.10
2024-02-24T03:54:18.764Z,4.00
2024-02-24T03:55:18.777Z,4.00
2024-02-24T03:56:18.768Z,4.00
2024-02-24T03:57:18.739Z,4.40
2024-02-24T03:58:18.738Z,4.20
2024-02-24T03:59:18.880Z,4.10
2024-02-24T04:00:18.705Z,3.70
2024-02-24T04:01:18.757Z,4.00
2024-02-24T04:02:18.703Z,4.10
2024-02-24T04:03:18.660Z,3.90
2024-02-24T04:04:18.740Z,4.20
2024-02-24T04:05:18.646Z,4.30
2024-02-24T04:06:18.715Z,3.90
2024-02-24T04:07:18.666Z,4.10
2024-02-24T04:08:18.646Z,3.90
2024-02-24T04:09:18.605Z,4.30
2024-02-24T04:10:18.599Z,4.30
2024-02-24T04:11:18.649Z,4.70
2024-02-24T04:12:19.302Z,3.90
2024-02-24T04:13:18.570Z,4.20
2024-02-24T04:14:18.628Z,4.70
2024-02-24T04:15:18.526Z,3.80
2024-02-24T04:16:18.519Z,3.70
2024-02-24T04:17:18.644Z,3.90
2024-02-24T04:18:18.703Z,3.70
2024-02-24T04:19:18.575Z,3.90
2024-02-24T04:20:18.526Z,3.90
2024-02-24T04:21:18.529Z,4.30
2024-02-24T04:22:18.486Z,4.00
2024-02-24T04:23:18.603Z,3.80
2024-02-24T04:24:18.466Z,4.10
2024-02-24T04:25:18.430Z,4.00
2024-02-24T04:26:18.467Z,3.90
2024-02-24T04:27:18.414Z,4.20
2024-02-24T04:28:21.148Z,3.90
2024-02-24T04:29:18.483Z,4.20
2024-02-24T04:30:18.420Z,4.00
2024-02-24T04:31:18.359Z,4.30
2024-02-24T04:32:18.392Z,4.10
2024-02-24T04:33:18.935Z,3.70
2024-02-24T04:34:18.385Z,4.10
2024-02-24T04:35:18.463Z,4.10
2024-02-24T04:36:18.367Z,4.00
2024-02-24T04:37:18.288Z,3.80
2024-02-24T04:38:18.343Z,3.90
2024-02-24T04:39:18.285Z,3.80
2024-02-24T04:40:18.305Z,3.70
2024-02-24T04:41:18.278Z,4.20
2024-02-24T04:42:18.286Z,4.40
2024-02-24T04:43:18.270Z,4.00
2024-02-24T04:44:18.326Z,4.30
2024-02-24T04:45:18.228Z,4.00
2024-02-24T04:46:18.217Z,4.10
2024-02-24T04:47:18.237Z,3.80
2024-02-24T04:48:18.324Z,3.90
2024-02-24T04:49:18.256Z,3.80
2024-02-24T04:50:18.191Z,4.10
2024-02-24T04:51:18.187Z,4.20
2024-02-24T04:52:18.154Z,3.90
2024-02-24T04:53:18.150Z,4.20
2024-02-24T04:54:18.150Z,4.10
2024-02-24T04:55:18.138Z,4.30
2024-02-24T04:56:18.180Z,4.30
2024-02-24T04:57:18.094Z,4.30
2024-02-24T04:58:18.075Z,4.70
2024-02-24T04:59:18.211Z,4.10
2024-02-24T05:00:18.103Z,4.40
2024-02-24T05:01:18.134Z,4.00
2024-02-24T05:02:18.166Z,4.20
2024-02-24T05:03:18.018Z,4.30
2024-02-24T05:04:18.128Z,4.40
2024-02-24T05:05:18.061Z,3.90
2024-02-24T05:06:18.076Z,4.00
2024-02-24T05:07:18.015Z,4.00
2024-02-24T05:08:18.045Z,4.10
2024-02-24T05:09:18.052Z,4.30
2024-02-24T05:10:17.961Z,4.10
2024-02-24T05:11:18.037Z,3.90
2024-02-24T05:12:18.024Z,4.30
2024-02-24T05:13:17.907Z,4.60
2024-02-24T05:14:17.944Z,4.50
2024-02-24T05:15:17.920Z,4.30
2024-02-24T05:16:17.923Z,4.10
2024-02-24T05:17:17.996Z,4.10
2024-02-24T05:18:18.093Z,4.20
2024-02-24T05:19:17.894Z,4.10
2024-02-24T05:20:17.865Z,4.10
2024-02-24T05:21:17.902Z,4.30
2024-02-24T05:22:17.844Z,4.40
2024-02-24T05:23:17.812Z,4.20
2024-02-24T05:24:17.818Z,4.00
2024-02-24T05:25:17.799Z,3.90
2024-02-24T05:26:17.878Z,4.30
2024-02-24T05:27:17.828Z,4.30
2024-02-24T05:28:17.782Z,4.20
2024-02-24T05:29:17.816Z,4.40
2024-02-24T05:30:17.762Z,4.20
2024-02-24T05:31:17.747Z,4.30
2024-02-24T05:32:18.208Z,4.30
2024-02-24T05:33:17.905Z,4.00
2024-02-24T05:34:17.962Z,4.30
2024-02-24T05:35:17.724Z,4.00
2024-02-24T05:36:17.695Z,4.70
2024-02-24T05:37:17.701Z,4.30
2024-02-24T05:38:17.703Z,4.40
2024-02-24T05:39:17.664Z,4.10
2024-02-24T05:40:17.665Z,4.10
2024-02-24T05:41:17.655Z,4.40
2024-02-24T05:42:17.646Z,4.40
2024-02-24T05:43:17.634Z,4.70
2024-02-24T05:44:17.659Z,4.10
2024-02-24T05:45:17.646Z,3.90
2024-02-24T05:46:17.590Z,4.10
2024-02-24T05:47:17.700Z,4.00
2024-02-24T05:48:17.706Z,4.30
2024-02-24T05:49:17.637Z,4.30
2024-02-24T05:50:17.605Z,4.10
2024-02-24T05:51:17.541Z,4.30
2024-02-24T05:52:17.533Z,4.60
2024-02-24T05:53:17.548Z,4.50
2024-02-24T05:54:17.562Z,4.40
2024-02-24T05:55:18.255Z,4.30
2024-02-24T05:56:17.544Z,4.20
2024-02-24T05:57:17.490Z,4.20
2024-02-24T05:58:17.460Z,4.60
2024-02-24T05:59:17.498Z,4.90
2024-02-24T06:00:17.469Z,4.30
2024-02-24T06:01:17.520Z,4.80
2024-02-24T06:02:17.485Z,5.00
2024-02-24T06:03:17.440Z,6.90
2024-02-24T06:04:17.450Z,8.20
2024-02-24T06:05:17.428Z,8.50
2024-02-24T06:06:17.535Z,7.20
2024-02-24T06:07:17.366Z,5.50
2024-02-24T06:08:17.445Z,5.60
2024-02-24T06:09:17.377Z,5.90
2024-02-24T06:10:17.388Z,5.80
2024-02-24T06:11:17.454Z,5.90
2024-02-24T06:12:17.391Z,6.00
2024-02-24T06:13:17.318Z,5.80
2024-02-24T06:14:17.376Z,5.80
2024-02-24T06:15:17.304Z,6.10
2024-02-24T06:16:17.326Z,6.20
2024-02-24T06:17:17.291Z,6.10
2024-02-24T06:18:17.431Z,6.00
2024-02-24T06:19:17.313Z,6.10
2024-02-24T06:20:17.304Z,5.30
2024-02-24T06:21:17.228Z,5.20
2024-02-24T06:22:17.353Z,4.40
2024-02-24T06:23:17.244Z,4.50
2024-02-24T06:24:17.189Z,4.50
2024-02-24T06:25:17.225Z,4.40
2024-02-24T06:26:17.228Z,4.70
2024-02-24T06:27:17.184Z,5.80
2024-02-24T06:28:17.180Z,4.80
2024-02-24T06:29:17.247Z,4.90
2024-02-24T06:30:17.251Z,4.80
2024-02-24T06:31:17.157Z,4.80
2024-02-24T06:32:17.189Z,5.30
2024-02-24T06:33:17.216Z,5.00
2024-02-24T06:34:17.203Z,4.90
2024-02-24T06:35:17.112Z,4.70
2024-02-24T06:36:17.102Z,4.70
2024-02-24T06:37:17.110Z,4.80
2024-02-24T06:38:17.108Z,4.70
2024-02-24T06:39:17.073Z,4.80
2024-02-24T06:40:25.930Z,4.50
2024-02-24T06:41:17.061Z,4.90
2024-02-24T06:42:17.056Z,4.90
2024-02-24T06:43:17.009Z,4.90
2024-02-24T06:44:17.073Z,4.70
2024-02-24T06:45:16.998Z,5.10
2024-02-24T06:46:17.023Z,4.60
2024-02-24T06:47:24.819Z,5.50
2024-02-24T06:48:17.083Z,5.40
2024-02-24T06:49:17.078Z,5.40
2024-02-24T06:50:16.967Z,6.10
2024-02-24T06:51:16.908Z,6.50
2024-02-24T06:52:16.937Z,6.40
2024-02-24T06:53:16.991Z,6.60
2024-02-24T06:54:17.001Z,5.60
2024-02-24T06:55:16.901Z,5.10
2024-02-24T06:56:16.880Z,4.70
2024-02-24T06:57:16.868Z,4.30
2024-02-24T06:58:16.854Z,4.50
2024-02-24T06:59:16.970Z,4.50
2024-02-24T07:00:16.816Z,4.60
2024-02-24T07:01:16.936Z,4.40
2024-02-24T07:02:16.922Z,4.80
2024-02-24T07:03:16.842Z,4.80
2024-02-24T07:04:16.843Z,4.30
2024-02-24T07:05:16.926Z,3.90
2024-02-24T07:06:16.800Z,4.20
2024-02-24T07:07:16.858Z,4.30
2024-02-24T07:08:16.901Z,4.10
2024-02-24T07:09:16.734Z,4.80
2024-02-24T07:10:17.700Z,4.40
2024-02-24T07:11:16.768Z,4.80
2024-02-24T07:12:16.890Z,4.40
2024-02-24T07:13:17.098Z,4.40
2024-02-24T07:14:16.719Z,4.60
2024-02-24T07:15:16.673Z,4.20
2024-02-24T07:16:16.863Z,4.20
2024-02-24T07:17:16.733Z,4.20
2024-02-24T07:18:16.830Z,4.50
2024-02-24T07:19:16.713Z,4.40
2024-02-24T07:20:16.775Z,4.30
2024-02-24T07:21:16.640Z,4.10
2024-02-24T07:22:16.783Z,4.40
2024-02-24T07:23:16.636Z,4.30
2024-02-24T07:24:16.841Z,4.10
2024-02-24T07:25:16.881Z,4.10
2024-02-24T07:26:16.680Z,4.40
2024-02-24T07:27:16.591Z,4.20
2024-02-24T07:28:16.580Z,4.30
2024-02-24T07:29:16.664Z,4.10
2024-02-24T07:30:16.617Z,4.10
2024-02-24T07:31:16.832Z,3.70
2024-02-24T07:32:16.526Z,4.00
2024-02-24T07:33:16.808Z,4.00
2024-02-24T07:34:16.764Z,3.70
2024-02-24T07:35:16.826Z,3.70
2024-02-24T07:36:16.618Z,3.90
2024-02-24T07:37:16.424Z,4.20
2024-02-24T07:38:16.427Z,3.80
2024-02-24T07:39:16.451Z,3.50
2024-02-24T07:40:16.447Z,3.50
2024-02-24T07:41:16.452Z,3.60
2024-02-24T07:42:16.448Z,3.70
2024-02-24T07:43:16.394Z,3.80
2024-02-24T07:44:17.863Z,3.70
2024-02-24T07:45:16.438Z,3.80
2024-02-24T07:46:16.630Z,3.50
2024-02-24T07:47:16.411Z,3.80
2024-02-24T07:48:16.444Z,3.40
2024-02-24T07:49:16.427Z,3.60
2024-02-24T07:50:16.671Z,3.50
2024-02-24T07:51:17.305Z,3.30
2024-02-24T07:52:16.322Z,3.30
2024-02-24T07:53:16.287Z,3.40
2024-02-24T07:54:16.233Z,3.30
2024-02-24T07:55:16.254Z,3.10
2024-02-24T07:56:16.279Z,3.80
2024-02-24T07:57:16.286Z,3.00
2024-02-24T07:58:16.272Z,3.30
2024-02-24T07:59:16.216Z,3.20
2024-02-24T08:00:16.189Z,3.50
2024-02-24T08:01:16.315Z,3.60
2024-02-24T08:02:16.390Z,3.60
2024-02-24T08:03:16.224Z,3.20
2024-02-24T08:04:16.259Z,3.20
2024-02-24T08:05:16.171Z,3.30
2024-02-24T08:06:16.116Z,3.10
2024-02-24T08:07:16.188Z,3.10
2024-02-24T08:08:16.112Z,3.20
2024-02-24T08:09:16.125Z,3.90
2024-02-24T08:10:16.115Z,3.10
2024-02-24T08:11:16.102Z,3.40
2024-02-24T08:12:16.144Z,3.10
2024-02-24T08:13:16.057Z,3.10
2024-02-24T08:14:16.068Z,3.20
2024-02-24T08:15:16.029Z,2.90
2024-02-24T08:16:15.997Z,3.10
2024-02-24T08:17:16.021Z,2.90
2024-02-24T08:18:16.168Z,3.20
2024-02-24T08:19:16.001Z,2.90
2024-02-24T08:20:16.020Z,3.30
2024-02-24T08:21:15.962Z,3.00
2024-02-24T08:22:15.942Z,2.80
2024-02-24T08:23:16.009Z,3.10
2024-02-24T08:24:16.019Z,2.90
2024-02-24T08:25:15.917Z,2.90
2024-02-24T08:26:15.907Z,3.00
2024-02-24T08:27:15.908Z,3.20
2024-02-24T08:28:15.881Z,2.90
2024-02-24T08:29:15.897Z,2.80
2024-02-24T08:30:15.841Z,3.20
2024-02-24T08:31:15.849Z,2.90
2024-02-24T08:32:15.851Z,3.20
2024-02-24T08:33:15.926Z,2.90
2024-02-24T08:34:15.886Z,3.20
2024-02-24T08:35:15.936Z,3.10
2024-02-24T08:36:16.116Z,2.90
2024-02-24T08:37:15.767Z,2.80
2024-02-24T08:38:15.766Z,3.00
2024-02-24T08:39:15.782Z,2.80
2024-02-24T08:40:16.554Z,3.00
2024-02-24T08:41:15.782Z,2.90
2024-02-24T08:42:15.786Z,2.90
2024-02-24T08:43:15.694Z,2.90
2024-02-24T08:44:15.928Z,2.90
2024-02-24T08:45:15.667Z,3.00
2024-02-24T08:46:15.845Z,3.00
2024-02-24T08:47:15.758Z,2.80
2024-02-24T08:48:15.768Z,2.70
2024-02-24T08:49:15.643Z,2.80
2024-02-24T08:50:15.742Z,2.70
2024-02-24T08:51:15.655Z,2.90
2024-02-24T08:52:17.558Z,2.90
2024-02-24T08:53:15.613Z,2.80
2024-02-24T08:54:15.583Z,2.80
2024-02-24T08:55:15.571Z,2.80
2024-02-24T08:56:15.615Z,2.70
2024-02-24T08:57:15.568Z,2.70
2024-02-24T08:58:15.546Z,2.30
2024-02-24T08:59:15.617Z,2.50
2024-02-24T09:00:15.567Z,2.60
2024-02-24T09:01:15.616Z,2.50
2024-02-24T09:02:15.511Z,2.60
2024-02-24T09:03:15.546Z,2.70
2024-02-24T09:04:15.474Z,2.70
2024-02-24T09:05:15.532Z,2.70
2024-02-24T09:06:15.673Z,2.60
2024-02-24T09:07:15.615Z,2.60
2024-02-24T09:08:15.497Z,2.60
2024-02-24T09:09:15.450Z,2.60
2024-02-24T09:10:15.409Z,2.60
2024-02-24T09:11:15.528Z,2.40
2024-02-24T09:12:15.474Z,2.60
2024-02-24T09:13:16.037Z,2.50
2024-02-24T09:14:15.479Z,2.60
2024-02-24T09:15:15.353Z,2.50
2024-02-24T09:16:15.341Z,2.00
2024-02-24T09:17:15.394Z,2.00
2024-02-24T09:18:15.436Z,2.40
2024-02-24T09:19:15.407Z,2.00
2024-02-24T09:20:15.376Z,2.50
2024-02-24T09:21:15.292Z,2.20
2024-02-24T09:22:15.306Z,2.30
2024-02-24T09:23:15.322Z,2.30
2024-02-24T09:24:15.244Z,2.40
2024-02-24T09:25:15.313Z,2.30
2024-02-24T09:26:15.281Z,2.30
2024-02-24T09:27:15.240Z,2.20
2024-02-24T09:28:15.214Z,2.30
2024-02-24T09:29:15.218Z,2.50
2024-02-24T09:30:15.216Z,2.10
2024-02-24T09:31:15.179Z,2.60
2024-02-24T09:32:15.215Z,2.00
2024-02-24T09:33:15.402Z,2.20
2024-02-24T09:34:15.223Z,2.70
2024-02-24T09:35:15.234Z,2.00
2024-02-24T09:36:15.145Z,2.10
2024-02-24T09:37:15.155Z,2.00
2024-02-24T09:38:15.217Z,2.00
2024-02-24T09:39:15.127Z,1.90
2024-02-24T09:40:15.228Z,1.90
2024-02-24T09:41:15.094Z,2.10
2024-02-24T09:42:15.045Z,2.00
2024-02-24T09:43:15.081Z,1.70
2024-02-24T09:44:15.059Z,1.90
2024-02-24T09:45:15.026Z,2.00
2024-02-24T09:46:15.003Z,1.70
2024-02-24T09:47:15.028Z,2.00
2024-02-24T09:48:15.179Z,1.80
2024-02-24T09:49:15.023Z,1.90
2024-02-24T09:50:15.029Z,1.80
2024-02-24T09:51:14.953Z,2.00
2024-02-24T09:52:14.963Z,1.90
2024-02-24T09:53:14.958Z,1.70
2024-02-24T09:54:14.921Z,1.90
2024-02-24T09:55:14.909Z,1.90
2024-02-24T09:56:14.973Z,2.10
2024-02-24T09:57:14.920Z,1.90
2024-02-24T09:58:17.181Z,1.70
2024-02-24T09:59:14.921Z,1.90
2024-02-24T10:00:14.873Z,2.00
2024-02-24T10:01:15.225Z,1.70
2024-02-24T10:02:14.863Z,1.80
2024-02-24T10:03:15.034Z,1.80
2024-02-24T10:04:14.818Z,1.80
2024-02-24T10:05:14.902Z,2.20
2024-02-24T10:06:14.935Z,1.70
2024-02-24T10:07:14.798Z,2.40
2024-02-24T10:08:14.794Z,1.80
2024-02-24T10:09:14.770Z,1.70
2024-02-24T10:10:14.754Z,1.70
2024-02-24T10:11:15.010Z,1.50
2024-02-24T10:12:14.850Z,1.60
2024-02-24T10:13:14.725Z,1.50
2024-02-24T10:14:14.741Z,1.30
2024-02-24T10:15:14.701Z,1.50
2024-02-24T10:16:14.683Z,1.40
2024-02-24T10:17:14.706Z,1.30
2024-02-24T10:18:14.804Z,1.30
2024-02-24T10:19:14.884Z,1.40
2024-02-24T10:20:14.686Z,1.40
2024-02-24T10:21:14.665Z,1.30
2024-02-24T10:22:14.629Z,1.40
2024-02-24T10:23:14.732Z,1.30
2024-02-24T10:24:14.590Z,1.60
2024-02-24T10:25:14.633Z,1.30
2024-02-24T10:26:14.651Z,1.30
2024-02-24T10:27:14.562Z,1.40
2024-02-24T10:28:14.570Z,1.20
2024-02-24T10:29:14.547Z,1.10
2024-02-24T10:30:14.523Z,1.20
2024-02-24T10:31:14.520Z,1.30
2024-02-24T10:32:14.560Z,1.40
2024-02-24T10:33:14.721Z,1.20
2024-02-24T10:34:14.581Z,1.30
2024-02-24T10:35:14.518Z,1.30
2024-02-24T10:36:14.509Z,1.40
2024-02-24T10:37:14.456Z,1.20
2024-02-24T10:38:23.594Z,1.40
2024-02-24T10:39:14.477Z,1.50
2024-02-24T10:40:14.460Z,1.60
2024-02-24T10:41:14.450Z,1.30
2024-02-24T10:42:14.464Z,1.20
2024-02-24T10:43:14.480Z,1.50
2024-02-24T10:44:19.136Z,1.30
2024-02-24T10:45:14.411Z,1.40
2024-02-24T10:46:14.398Z,1.20
2024-02-24T10:47:14.444Z,1.30
2024-02-24T10:48:14.465Z,1.30
2024-02-24T10:49:14.394Z,1.10
2024-02-24T10:50:14.355Z,1.40
2024-02-24T10:51:14.332Z,1.40
2024-02-24T10:52:14.333Z,1.20
2024-02-24T10:53:14.426Z,1.20
2024-02-24T10:54:14.286Z,1.20
2024-02-24T10:55:14.292Z,1.30
2024-02-24T10:56:14.275Z,1.20
2024-02-24T10:57:14.225Z,1.20
2024-02-24T10:58:14.258Z,1.70
2024-02-24T10:59:14.378Z,1.60
2024-02-24T11:00:14.224Z,1.90
2024-02-24T11:01:14.746Z,1.40
2024-02-24T11:02:14.235Z,1.90
2024-02-24T11:03:14.177Z,1.80
2024-02-24T11:04:14.206Z,1.60
2024-02-24T11:05:14.182Z,1.60
2024-02-24T11:06:14.223Z,1.30
2024-02-24T11:07:14.287Z,1.30
2024-02-24T11:08:14.164Z,1.30
2024-02-24T11:09:14.131Z,1.60
2024-02-24T11:10:14.112Z,1.20
2024-02-24T11:11:14.180Z,1.50
2024-02-24T11:12:14.175Z,2.70
2024-02-24T11:13:14.091Z,1.80
2024-02-24T11:14:14.117Z,1.60
2024-02-24T11:15:14.293Z,3.40
2024-02-24T11:16:14.044Z,3.30
2024-02-24T11:17:14.043Z,2.50
2024-02-24T11:18:14.139Z,3.50
2024-02-24T11:19:14.390Z,2.60
2024-02-24T11:20:14.028Z,2.00
2024-02-24T11:21:14.008Z,2.40
2024-02-24T11:22:13.967Z,2.60
2024-02-24T11:23:13.973Z,2.70
2024-02-24T11:24:14.473Z,4.00
2024-02-24T11:25:13.933Z,4.10
2024-02-24T11:26:14.117Z,2.80
2024-02-24T11:27:14.013Z,3.60
2024-02-24T11:28:13.903Z,3.20
2024-02-24T11:29:13.899Z,6.10
2024-02-24T11:30:13.861Z,2.50
2024-02-24T11:31:13.895Z,4.00
2024-02-24T11:32:14.157Z,3.10
2024-02-24T11:33:14.016Z,1.80
2024-02-24T11:34:13.913Z,1.60
2024-02-24T11:35:13.837Z,2.20
2024-02-24T11:36:13.793Z,2.40
2024-02-24T11:37:13.798Z,2.20
2024-02-24T11:38:13.869Z,1.80
2024-02-24T11:39:13.885Z,1.80
2024-02-24T11:40:13.765Z,2.30
2024-02-24T11:41:13.801Z,1.50
2024-02-24T11:42:13.768Z,2.10
2024-02-24T11:43:13.744Z,2.40
2024-02-24T11:44:13.852Z,1.70
2024-02-24T11:45:13.696Z,1.90
2024-02-24T11:46:13.702Z,2.40
2024-02-24T11:47:13.781Z,3.30
2024-02-24T11:48:13.896Z,5.50
2024-02-24T11:49:13.743Z,3.40
2024-02-24T11:50:13.700Z,2.80
2024-02-24T11:51:13.743Z,2.10
2024-02-24T11:52:13.712Z,1.50
2024-02-24T11:53:13.761Z,2.20
2024-02-24T11:54:13.639Z,2.70
2024-02-24T11:55:13.629Z,4.20
2024-02-24T11:56:13.651Z,3.10
2024-02-24T11:57:13.859Z,3.40
2024-02-24T11:58:13.596Z,2.30
2024-02-24T11:59:13.622Z,2.80
2024-02-24T12:00:13.617Z,2.40
2024-02-24T12:01:13.638Z,2.70
2024-02-24T12:02:13.551Z,1.60
2024-02-24T12:03:13.516Z,1.30
2024-02-24T12:04:13.532Z,1.30
2024-02-24T12:05:13.700Z,1.30
2024-02-24T12:06:13.742Z,1.50
2024-02-24T12:07:13.539Z,1.60
2024-02-24T12:08:13.461Z,2.30
2024-02-24T12:09:13.629Z,2.20
2024-02-24T12:10:13.590Z,2.00
2024-02-24T12:11:13.533Z,2.20
2024-02-24T12:12:13.422Z,2.00
2024-02-24T12:13:13.385Z,2.80
2024-02-24T12:14:13.469Z,2.00
2024-02-24T12:15:13.371Z,2.50
2024-02-24T12:16:13.382Z,2.10
2024-02-24T12:17:13.345Z,3.10
2024-02-24T12:18:13.550Z,2.10
2024-02-24T12:19:13.377Z,1.90
2024-02-24T12:20:13.593Z,1.80
2024-02-24T12:21:13.309Z,1.30
2024-02-24T12:22:13.287Z,1.40
2024-02-24T12:23:13.302Z,1.50
2024-02-24T12:24:13.246Z,1.80
2024-02-24T12:25:13.264Z,1.40
2024-02-24T12:26:13.277Z,1.30
2024-02-24T12:27:13.254Z,1.20
2024-02-24T12:28:13.202Z,1.20
2024-02-24T12:29:13.233Z,1.40
2024-02-24T12:30:13.245Z,1.70
2024-02-24T12:31:13.152Z,1.50
2024-02-24T12:32:13.263Z,1.70
2024-02-24T12:33:17.422Z,1.50
2024-02-24T12:34:13.227Z,1.40
2024-02-24T12:35:13.239Z,1.60
2024-02-24T12:36:13.128Z,1.40
2024-02-24T12:37:13.123Z,1.30
2024-02-24T12:38:13.217Z,1.20
2024-02-24T12:39:13.257Z,1.20
2024-02-24T12:40:13.094Z,1.50
2024-02-24T12:41:13.183Z,1.20
2024-02-24T12:42:13.059Z,1.20
2024-02-24T12:43:13.061Z,1.30
2024-02-24T12:44:13.052Z,1.40
2024-02-24T12:45:13.031Z,1.50
2024-02-24T12:46:13.002Z,1.50
2024-02-24T12:47:13.064Z,1.40
2024-02-24T12:48:13.009Z,1.60
2024-02-24T12:49:13.029Z,1.20
2024-02-24T12:50:13.102Z,1.40
2024-02-24T12:51:12.971Z,1.20
2024-02-24T12:52:12.935Z,1.30
2024-02-24T12:53:12.962Z,1.40
2024-02-24T12:54:13.112Z,1.40
2024-02-24T12:55:12.910Z,1.40
2024-02-24T12:56:12.934Z,1.30
2024-02-24T12:57:12.901Z,1.30
2024-02-24T12:58:12.887Z,1.50
2024-02-24T12:59:12.918Z,1.50
2024-02-24T13:00:12.888Z,1.50
2024-02-24T13:01:12.856Z,1.40
2024-02-24T13:02:12.877Z,1.50
2024-02-24T13:03:12.892Z,1.40
2024-02-24T13:04:12.834Z,1.40
2024-02-24T13:05:12.985Z,1.10
2024-02-24T13:06:12.917Z,1.30
2024-02-24T13:07:12.793Z,1.10
2024-02-24T13:08:12.882Z,1.40
2024-02-24T13:09:12.866Z,1.30
2024-02-24T13:10:12.800Z,1.40
2024-02-24T13:11:12.808Z,1.20
2024-02-24T13:12:12.786Z,1.30
2024-02-24T13:13:12.747Z,1.30
2024-02-24T13:14:12.883Z,1.40
2024-02-24T13:15:12.698Z,1.20
2024-02-24T13:16:12.684Z,1.10
2024-02-24T13:17:12.740Z,1.30
2024-02-24T13:18:12.761Z,1.20